Nortonville, Kansas
Current Conditions -  °F | °C
As of 3:52 AM on Saturday 25 Oct 2014 (Local Time) from KLWC Reporting Station
Moderate Fog Moderate Fog  
Wind Chill: 11°   Ceiling: 100
Heat Index: 11°   Visibility: 0.25mi
Dew Point: 11°   Wind: 3mph
Humidity: 97%   Direction: 330°NNW
Pressure: 30.01"   Gusts: NA
Location:  39.42°N, 95.33°W
Report Text: KLWC 250852Z AUTO 33003KT 1/4SM FG VV001 11/11 A3001 RMK AO2 SLP158 T01110106 50004
Loading
Personal Weather Stations






























Interactive Weather Map
Tropical Storm Tracking
New forecast layout! Learn more

10-Day Weather Forecast

Advertisements
Track Severe Weather on mobile